Terminal Aerodrome Forecast
Issued by NWS Midland/Odessa, TX

Home | Current Version | Previous Version | Text Only | Print | Product List | Glossary On
Versions: 1 2 3 4 5 6 7 8 9 10 11 12 13 14
304
FTUS44 KMAF 251407 AAB
TAFMAF
TAF AMD
KMAF 251407Z 2514/2612 22011KT P6SM FEW250
     FM251700 25025G35KT P6SM SCT250
     FM260300 28011KT P6SM OVC100=

USA.gov is the U.S. government's official web portal to all federal, state and local government web resources and services.